createdAt,value
2022-08-01T00:00:54.045Z,9.18
2022-08-01T00:03:21.952Z,9.27
2022-08-01T00:05:50.067Z,9.10
2022-08-01T00:08:17.940Z,8.82
2022-08-01T00:10:46.011Z,8.70
2022-08-01T00:13:15.265Z,9.38
2022-08-01T00:15:44.338Z,8.77
2022-08-01T00:18:19.751Z,7.85
2022-08-01T00:20:47.634Z,8.00
2022-08-01T00:23:15.511Z,8.98
2022-08-01T00:25:43.535Z,9.07
2022-08-01T00:28:11.566Z,7.47
2022-08-01T00:30:40.821Z,8.85
2022-08-01T00:33:08.921Z,7.60
2022-08-01T00:35:36.921Z,8.65
2022-08-01T00:38:04.840Z,8.80
2022-08-01T00:40:32.968Z,8.43
2022-08-01T00:43:00.936Z,9.70
2022-08-01T00:45:28.942Z,8.48
2022-08-01T00:47:58.570Z,9.55
2022-08-01T00:50:26.635Z,8.93
2022-08-01T00:52:55.738Z,8.30
2022-08-01T00:55:24.782Z,8.43
2022-08-01T00:58:04.584Z,8.60
2022-08-01T01:00:53.283Z,8.82
2022-08-01T01:06:40.845Z,8.35
2022-08-01T01:09:19.262Z,10.32
2022-08-01T01:11:54.000Z,9.07
2022-08-01T01:14:29.744Z,7.53
2022-08-01T01:17:00.798Z,7.10
2022-08-01T01:19:35.432Z,7.30
2022-08-01T01:22:20.217Z,6.40
2022-08-01T01:25:00.593Z,6.13
2022-08-01T01:27:41.641Z,6.82
2022-08-01T01:30:11.292Z,7.80
2022-08-01T01:32:43.818Z,7.20
2022-08-01T01:35:17.750Z,6.68
2022-08-01T01:37:49.253Z,7.90
2022-08-01T01:40:19.053Z,7.22
2022-08-01T01:42:48.621Z,7.35
2022-08-01T01:45:19.250Z,8.82
2022-08-01T01:47:48.267Z,7.30
2022-08-01T01:50:17.731Z,8.40
2022-08-01T01:52:47.677Z,8.45
2022-08-01T01:55:16.560Z,8.77
2022-08-01T01:57:46.770Z,7.78
2022-08-01T02:00:17.685Z,7.82
2022-08-01T02:02:47.377Z,8.60
2022-08-01T02:05:17.221Z,8.10
2022-08-01T02:07:48.497Z,8.75
2022-08-01T02:10:19.736Z,7.95
2022-08-01T02:12:59.360Z,7.72
2022-08-01T02:15:30.689Z,8.77
2022-08-01T02:17:59.840Z,8.75
2022-08-01T02:20:31.099Z,8.15
2022-08-01T02:23:03.889Z,7.38
2022-08-01T02:25:36.185Z,7.65
2022-08-01T02:28:09.172Z,7.82
2022-08-01T02:30:41.308Z,7.80
2022-08-01T02:33:16.085Z,8.13
2022-08-01T02:36:29.771Z,6.35
2022-08-01T02:38:39.760Z,6.85
2022-08-01T02:41:14.933Z,7.03
2022-08-01T02:43:50.841Z,6.07
2022-08-01T02:46:27.966Z,6.22
2022-08-01T02:49:00.712Z,5.82
2022-08-01T02:51:30.464Z,6.10
2022-08-01T02:54:01.151Z,5.90
2022-08-01T02:56:36.680Z,5.72
2022-08-01T02:59:07.993Z,5.65
2022-08-01T03:01:38.607Z,5.47
2022-08-01T03:04:11.393Z,6.55
2022-08-01T03:06:39.878Z,6.03
2022-08-01T03:09:10.757Z,6.00
2022-08-01T03:11:42.023Z,6.10
2022-08-01T03:14:12.726Z,5.85
2022-08-01T03:16:44.636Z,5.88
2022-08-01T03:19:14.248Z,6.13
2022-08-01T03:21:44.637Z,6.13
2022-08-01T03:24:14.986Z,5.95
2022-08-01T03:26:44.364Z,5.75
2022-08-01T03:29:18.087Z,6.10
2022-08-01T03:31:48.493Z,6.28
2022-08-01T03:34:16.625Z,5.10
2022-08-01T03:36:49.970Z,5.85
2022-08-01T03:39:20.275Z,5.28
2022-08-01T03:41:56.669Z,5.47
2022-08-01T03:44:29.796Z,5.10
2022-08-01T03:47:03.821Z,4.90
2022-08-01T03:49:33.881Z,5.60
2022-08-01T03:52:06.042Z,4.90
2022-08-01T03:54:37.922Z,4.43
2022-08-01T03:57:07.313Z,4.50
2022-08-01T03:59:38.864Z,4.97
2022-08-01T04:02:08.933Z,4.38
2022-08-01T04:04:37.430Z,4.28
2022-08-01T04:07:08.739Z,3.63
2022-08-01T04:09:36.693Z,3.90
2022-08-01T04:12:11.987Z,3.90
2022-08-01T04:14:40.321Z,3.58
2022-08-01T04:17:09.617Z,3.60
2022-08-01T04:19:37.532Z,3.70
2022-08-01T04:22:06.808Z,3.63
2022-08-01T04:24:37.482Z,3.80
2022-08-01T04:27:11.251Z,5.40
2022-08-01T04:29:40.594Z,3.92
2022-08-01T04:32:13.726Z,4.60
2022-08-01T04:34:47.178Z,4.00
2022-08-01T04:37:18.671Z,4.03
2022-08-01T04:39:50.640Z,4.72
2022-08-01T04:42:26.120Z,5.38
2022-08-01T04:45:01.326Z,5.32
2022-08-01T04:47:32.718Z,5.00
2022-08-01T04:50:00.854Z,4.55
2022-08-01T04:52:35.573Z,5.32
2022-08-01T04:55:03.683Z,5.10
2022-08-01T04:57:31.790Z,4.80
2022-08-01T05:00:00.058Z,4.22
2022-08-01T05:02:30.067Z,5.70
2022-08-01T05:04:59.552Z,4.30
2022-08-01T05:07:27.477Z,3.30
2022-08-01T05:09:56.001Z,4.53
2022-08-01T05:12:24.125Z,3.47
2022-08-01T05:14:52.029Z,3.50
2022-08-01T05:17:19.932Z,3.33
2022-08-01T05:19:48.040Z,2.42
2022-08-01T05:22:17.859Z,2.80
2022-08-01T05:24:45.825Z,2.17
2022-08-01T05:27:17.132Z,1.90
2022-08-01T05:29:47.298Z,1.80
2022-08-01T05:32:15.236Z,1.70
2022-08-01T05:34:44.062Z,2.40
2022-08-01T05:37:11.946Z,1.90
2022-08-01T05:39:41.468Z,2.60
2022-08-01T05:42:09.498Z,2.40
2022-08-01T05:44:37.522Z,2.20
2022-08-01T05:47:05.554Z,2.28
2022-08-01T05:49:33.673Z,2.60
2022-08-01T05:52:03.136Z,2.40
2022-08-01T05:54:32.162Z,2.33
2022-08-01T05:57:02.843Z,2.40
2022-08-01T05:59:31.165Z,2.10
2022-08-01T06:01:59.213Z,2.30
2022-08-01T06:04:28.641Z,2.47
2022-08-01T06:06:56.695Z,2.45
2022-08-01T06:09:24.611Z,2.20
2022-08-01T06:11:52.627Z,3.65
2022-08-01T06:14:21.857Z,2.55
2022-08-01T06:16:49.830Z,2.80
2022-08-01T06:19:17.718Z,2.72
2022-08-01T06:21:45.649Z,2.40
2022-08-01T06:24:13.529Z,2.10
2022-08-01T06:26:41.507Z,2.88
2022-08-01T06:29:10.021Z,3.03
2022-08-01T06:31:39.480Z,3.10
2022-08-01T06:34:07.419Z,2.88
2022-08-01T06:36:35.358Z,3.17
2022-08-01T06:39:03.301Z,3.30
2022-08-01T06:41:31.301Z,3.20
2022-08-01T06:44:00.953Z,3.85
2022-08-01T06:46:30.354Z,3.92
2022-08-01T06:49:01.894Z,15.38
2022-08-01T06:51:29.807Z,4.18
2022-08-01T06:53:57.799Z,4.65
2022-08-01T06:56:25.769Z,4.78
2022-08-01T06:58:53.908Z,4.57
2022-08-01T07:01:21.910Z,4.65
2022-08-01T07:03:53.058Z,4.70
2022-08-01T07:06:25.203Z,4.30
2022-08-01T07:08:53.562Z,4.28
2022-08-01T07:11:21.906Z,5.70
2022-08-01T07:13:50.133Z,4.80
2022-08-01T07:16:19.432Z,4.78
2022-08-01T07:18:47.379Z,4.78
2022-08-01T07:21:39.000Z,7.57
2022-08-01T07:24:13.425Z,7.45
2022-08-01T07:26:52.474Z,5.50
2022-08-01T07:29:23.600Z,4.50
2022-08-01T07:31:51.559Z,5.38
2022-08-01T07:34:19.470Z,4.43
2022-08-01T07:36:47.756Z,4.80
2022-08-01T07:39:17.028Z,4.57
2022-08-01T07:41:53.042Z,5.60
2022-08-01T07:44:32.864Z,6.55
2022-08-01T07:47:00.757Z,6.30
2022-08-01T07:49:28.803Z,4.60
2022-08-01T07:52:03.643Z,5.50
2022-08-01T07:54:34.684Z,5.28
2022-08-01T07:57:03.265Z,4.95
2022-08-01T07:59:31.138Z,5.10
2022-08-01T08:01:59.183Z,5.00
2022-08-01T08:04:27.356Z,5.20
2022-08-01T08:06:55.454Z,4.82
2022-08-01T08:09:23.936Z,4.82
2022-08-01T08:11:53.376Z,4.97
2022-08-01T08:14:23.757Z,4.75
2022-08-01T08:17:02.179Z,4.65
2022-08-01T08:19:37.729Z,6.20
2022-08-01T08:22:07.499Z,9.77
2022-08-01T08:24:35.664Z,7.60
2022-08-01T08:27:05.350Z,5.55
2022-08-01T08:29:34.055Z,5.28
2022-08-01T08:32:03.225Z,6.88
2022-08-01T08:34:31.629Z,4.10
2022-08-01T08:37:00.785Z,3.80
2022-08-01T08:39:30.553Z,3.40
2022-08-01T08:41:59.861Z,6.57
2022-08-01T08:44:29.176Z,4.00
2022-08-01T08:46:59.914Z,5.82
2022-08-01T08:49:35.916Z,3.38
2022-08-01T08:52:06.618Z,3.05
2022-08-01T08:54:39.223Z,3.15
2022-08-01T08:57:11.538Z,3.17
2022-08-01T08:59:41.790Z,6.88
2022-08-01T09:02:11.386Z,2.90
2022-08-01T09:04:41.259Z,15.02
2022-08-01T09:07:12.271Z,11.20
2022-08-01T09:09:41.751Z,5.13
2022-08-01T09:12:10.355Z,4.38
2022-08-01T09:14:48.550Z,3.15
2022-08-01T09:17:17.456Z,3.30
2022-08-01T09:19:48.852Z,4.32
2022-08-01T09:22:19.685Z,3.30
2022-08-01T09:25:01.491Z,3.50
2022-08-01T09:27:30.531Z,10.95
2022-08-01T09:30:11.236Z,10.38
2022-08-01T09:32:55.402Z,9.43
2022-08-01T09:35:29.846Z,3.20
2022-08-01T09:38:15.502Z,4.93
2022-08-01T09:40:52.096Z,3.33
2022-08-01T09:43:21.005Z,10.68
2022-08-01T09:45:53.464Z,7.03
2022-08-01T09:48:28.685Z,9.85
2022-08-01T09:51:00.872Z,8.07
2022-08-01T09:53:42.977Z,4.25
2022-08-01T09:56:19.597Z,2.92
2022-08-01T09:59:00.965Z,2.85
2022-08-01T10:01:44.853Z,3.55
2022-08-01T10:04:16.983Z,3.03
2022-08-01T10:06:50.246Z,5.28
2022-08-01T10:09:36.010Z,4.38
2022-08-01T10:12:15.205Z,4.35
2022-08-01T10:14:46.205Z,3.67
2022-08-01T10:17:19.598Z,3.22
2022-08-01T10:19:51.524Z,6.35
2022-08-01T10:22:21.567Z,5.32
2022-08-01T10:24:52.374Z,4.30
2022-08-01T10:27:24.274Z,4.22
2022-08-01T10:30:20.102Z,3.72
2022-08-01T10:32:55.107Z,5.93
2022-08-01T10:35:46.873Z,4.80
2022-08-01T10:38:13.894Z,3.83
2022-08-01T10:40:43.602Z,3.80
2022-08-01T10:43:12.047Z,5.43
2022-08-01T10:45:41.310Z,4.40
2022-08-01T10:48:20.861Z,3.75
2022-08-01T10:50:51.540Z,4.13
2022-08-01T10:53:24.079Z,3.33
2022-08-01T10:56:04.572Z,3.40
2022-08-01T10:58:42.595Z,3.50
2022-08-01T11:01:26.270Z,12.63
2022-08-01T11:04:06.354Z,13.27
2022-08-01T11:06:43.338Z,4.35
2022-08-01T11:09:36.087Z,3.25
2022-08-01T11:12:13.224Z,3.45
2022-08-01T11:15:29.162Z,2.50
2022-08-01T11:18:01.186Z,2.95
2022-08-01T11:20:32.574Z,3.38
2022-08-01T11:23:18.665Z,2.58
2022-08-01T11:26:10.498Z,2.78
2022-08-01T11:28:41.195Z,2.88
2022-08-01T11:31:37.089Z,3.05
2022-08-01T11:34:06.033Z,2.40
2022-08-01T11:39:23.466Z,3.13
2022-08-01T11:41:53.750Z,3.47
2022-08-01T11:44:30.217Z,2.53
2022-08-01T11:47:09.774Z,2.53
2022-08-01T11:50:00.583Z,3.83
2022-08-01T11:52:32.970Z,2.67
2022-08-01T11:55:10.337Z,2.55
2022-08-01T11:57:39.451Z,1.95
2022-08-01T12:00:15.435Z,2.13
2022-08-01T12:02:46.354Z,2.92
2022-08-01T12:05:16.042Z,2.92
2022-08-01T12:07:47.386Z,3.55
2022-08-01T12:10:16.865Z,2.42
2022-08-01T12:12:47.132Z,2.88
2022-08-01T12:15:15.467Z,11.13
2022-08-01T12:17:57.524Z,6.95
2022-08-01T12:20:30.464Z,6.78
2022-08-01T12:23:02.077Z,12.50
2022-08-01T12:25:30.240Z,4.10
2022-08-01T12:28:02.951Z,3.47
2022-08-01T12:30:36.248Z,2.15
2022-08-01T12:33:05.455Z,3.60
2022-08-01T12:35:33.991Z,2.40
2022-08-01T12:38:05.581Z,2.83
2022-08-01T12:40:36.515Z,17.63
2022-08-01T12:43:06.947Z,5.47
2022-08-01T12:45:40.550Z,3.95
2022-08-01T12:48:22.726Z,3.80
2022-08-01T12:50:53.402Z,2.60
2022-08-01T12:53:23.442Z,3.00
2022-08-01T12:55:59.273Z,8.02
2022-08-01T12:58:33.774Z,3.10
2022-08-01T13:01:06.500Z,3.38
2022-08-01T13:03:34.668Z,9.80
2022-08-01T13:06:03.074Z,4.40
2022-08-01T13:08:35.277Z,3.47
2022-08-01T13:11:05.805Z,5.72
2022-08-01T13:13:41.808Z,5.25
2022-08-01T13:16:12.426Z,3.92
2022-08-01T13:18:51.588Z,7.07
2022-08-01T13:21:21.677Z,3.88
2022-08-01T13:24:06.271Z,3.13
2022-08-01T13:26:44.735Z,3.17
2022-08-01T13:29:14.885Z,4.13
2022-08-01T13:31:43.628Z,2.85
2022-08-01T13:34:12.098Z,2.60
2022-08-01T13:36:45.509Z,8.98
2022-08-01T13:39:35.809Z,2.60
2022-08-01T13:42:04.228Z,3.28
2022-08-01T13:44:32.322Z,3.03
2022-08-01T13:47:00.165Z,4.15
2022-08-01T13:49:35.572Z,2.92
2022-08-01T13:52:08.331Z,2.40
2022-08-01T13:54:38.257Z,3.03
2022-08-01T13:57:06.200Z,2.08
2022-08-01T13:59:34.047Z,4.35
2022-08-01T14:02:02.124Z,4.55
2022-08-01T14:04:30.051Z,2.63
2022-08-01T14:06:57.957Z,2.47
2022-08-01T14:09:32.236Z,4.68
2022-08-01T14:12:02.131Z,2.80
2022-08-01T14:14:31.363Z,2.55
2022-08-01T14:16:59.318Z,2.20
2022-08-01T14:19:37.539Z,2.33
2022-08-01T14:22:08.173Z,3.05
2022-08-01T14:24:36.308Z,5.50
2022-08-01T14:27:08.293Z,2.80
2022-08-01T14:30:03.015Z,2.33
2022-08-01T14:32:28.396Z,2.30
2022-08-01T14:34:56.987Z,2.35
2022-08-01T14:37:27.915Z,2.70
2022-08-01T14:39:57.383Z,2.60
2022-08-01T14:42:28.282Z,2.40
2022-08-01T14:44:56.246Z,2.78
2022-08-01T14:47:24.229Z,2.33
2022-08-01T14:49:52.572Z,2.05
2022-08-01T14:52:21.641Z,2.38
2022-08-01T14:54:49.761Z,2.03
2022-08-01T14:57:19.314Z,2.42
2022-08-01T14:59:48.960Z,2.50
2022-08-01T15:02:18.270Z,2.20
2022-08-01T15:04:46.980Z,2.55
2022-08-01T15:07:15.595Z,3.50
2022-08-01T15:09:44.116Z,4.43
2022-08-01T15:12:12.541Z,2.38
2022-08-01T15:14:49.921Z,2.92
2022-08-01T15:17:20.931Z,3.97
2022-08-01T15:19:52.524Z,3.42
2022-08-01T15:22:22.302Z,2.65
2022-08-01T15:24:55.370Z,2.30
2022-08-01T15:27:25.500Z,2.88
2022-08-01T15:29:53.994Z,3.13
2022-08-01T15:32:23.652Z,3.38
2022-08-01T15:34:51.828Z,3.00
2022-08-01T15:37:20.337Z,3.10
2022-08-01T15:39:48.373Z,2.60
2022-08-01T15:42:20.252Z,2.30
2022-08-01T15:44:54.677Z,3.05
2022-08-01T15:47:24.847Z,2.85
2022-08-01T15:49:53.238Z,2.67
2022-08-01T15:52:23.176Z,2.95
2022-08-01T15:54:58.839Z,3.45
2022-08-01T15:57:26.816Z,3.38
2022-08-01T15:59:54.776Z,3.75
2022-08-01T16:02:24.245Z,2.67
2022-08-01T16:04:52.304Z,2.45
2022-08-01T16:07:20.331Z,2.78
2022-08-01T16:09:48.526Z,4.22
2022-08-01T16:12:16.582Z,3.83
2022-08-01T16:14:44.593Z,5.18
2022-08-01T16:17:12.938Z,3.85
2022-08-01T16:19:42.506Z,2.92
2022-08-01T16:22:10.550Z,2.67
2022-08-01T16:24:38.737Z,3.97
2022-08-01T16:27:06.961Z,3.20
2022-08-01T16:29:35.630Z,2.67
2022-08-01T16:32:11.111Z,2.70
2022-08-01T16:34:53.516Z,2.50
2022-08-01T16:37:22.823Z,2.70
2022-08-01T16:39:50.848Z,2.92
2022-08-01T16:42:18.827Z,2.88
2022-08-01T16:44:46.965Z,5.95
2022-08-01T16:47:17.935Z,4.82
2022-08-01T16:49:45.919Z,3.40
2022-08-01T16:52:15.295Z,2.92
2022-08-01T16:54:43.379Z,4.10
2022-08-01T16:57:11.625Z,3.15
2022-08-01T16:59:41.406Z,3.22
2022-08-01T17:02:11.431Z,2.80
2022-08-01T17:04:39.548Z,3.00
2022-08-01T17:07:07.985Z,3.53
2022-08-01T17:09:42.757Z,3.17
2022-08-01T17:12:14.364Z,4.68
2022-08-01T17:14:50.128Z,3.42
2022-08-01T17:17:18.403Z,7.00
2022-08-01T17:19:46.765Z,4.28
2022-08-01T17:22:14.879Z,3.20
2022-08-01T17:24:44.288Z,2.88
2022-08-01T17:27:13.517Z,3.30
2022-08-01T17:29:43.745Z,2.78
2022-08-01T17:32:12.803Z,4.43
2022-08-01T17:34:40.882Z,4.60
2022-08-01T17:37:09.245Z,3.22
2022-08-01T17:39:39.569Z,3.33
2022-08-01T17:42:10.941Z,3.22
2022-08-01T17:44:39.143Z,3.35
2022-08-01T17:47:09.977Z,2.42
2022-08-01T17:49:54.490Z,2.95
2022-08-01T17:52:23.548Z,3.17
2022-08-01T17:54:57.613Z,4.25
2022-08-01T17:57:27.013Z,3.38
2022-08-01T17:59:55.392Z,2.97
2022-08-01T18:02:23.510Z,2.47
2022-08-01T18:04:53.066Z,5.30
2022-08-01T18:08:01.777Z,3.03
2022-08-01T18:10:11.916Z,3.30
2022-08-01T18:12:41.774Z,3.25
2022-08-01T18:15:10.415Z,4.30
2022-08-01T18:17:43.449Z,2.55
2022-08-01T18:20:12.710Z,3.72
2022-08-01T18:22:41.633Z,3.40
2022-08-01T18:25:10.608Z,7.25
2022-08-01T18:28:23.361Z,5.40
2022-08-01T18:30:28.131Z,2.47
2022-08-01T18:32:56.396Z,2.90
2022-08-01T18:35:33.041Z,2.57
2022-08-01T18:38:13.369Z,3.03
2022-08-01T18:40:41.462Z,3.35
2022-08-01T18:43:09.557Z,2.83
2022-08-01T18:45:42.799Z,2.93
2022-08-01T18:48:11.367Z,2.78
2022-08-01T18:50:39.798Z,3.27
2022-08-01T18:53:07.855Z,2.97
2022-08-01T18:55:35.921Z,2.87
2022-08-01T18:58:04.008Z,2.60
2022-08-01T19:00:32.144Z,3.30
2022-08-01T19:03:01.524Z,2.40
2022-08-01T19:05:32.244Z,2.60
2022-08-01T19:08:06.017Z,2.50
2022-08-01T19:10:35.820Z,2.70
2022-08-01T19:13:03.767Z,2.60
2022-08-01T19:15:32.100Z,3.20
2022-08-01T19:18:02.195Z,3.00
2022-08-01T19:20:30.480Z,3.00
2022-08-01T19:22:58.856Z,3.00
2022-08-01T19:25:27.971Z,2.97
2022-08-01T19:27:59.290Z,3.00
2022-08-01T19:30:28.779Z,3.27
2022-08-01T19:32:57.703Z,3.70
2022-08-01T19:35:27.189Z,2.97
2022-08-01T19:37:57.559Z,3.10
2022-08-01T19:40:27.353Z,3.50
2022-08-01T19:42:57.595Z,3.03
2022-08-01T19:45:30.306Z,3.23
2022-08-01T19:47:58.501Z,3.33
2022-08-01T19:50:28.741Z,3.20
2022-08-01T19:52:58.947Z,2.90
2022-08-01T19:55:28.832Z,3.43
2022-08-01T19:58:25.366Z,3.27
2022-08-01T20:00:48.611Z,3.17
2022-08-01T20:03:19.441Z,3.07
2022-08-01T20:05:49.112Z,3.00
2022-08-01T20:08:18.343Z,3.70
2022-08-01T20:10:47.893Z,3.00
2022-08-01T20:13:16.493Z,2.90
2022-08-01T20:15:45.364Z,2.90
2022-08-01T20:18:13.507Z,2.80
2022-08-01T20:20:41.781Z,2.77
2022-08-01T20:23:18.111Z,2.63
2022-08-01T20:25:49.671Z,3.30
2022-08-01T20:28:22.134Z,3.20
2022-08-01T20:30:54.562Z,3.93
2022-08-01T20:33:22.676Z,3.37
2022-08-01T20:35:53.680Z,3.30
2022-08-01T20:38:27.684Z,3.17
2022-08-01T20:40:58.883Z,3.20
2022-08-01T20:43:28.103Z,3.87
2022-08-01T20:45:57.729Z,3.20
2022-08-01T20:48:27.618Z,3.53
2022-08-01T20:51:13.283Z,4.07
2022-08-01T20:53:45.243Z,3.23
2022-08-01T20:56:18.316Z,4.23
2022-08-01T20:59:10.342Z,3.07
2022-08-01T21:01:46.475Z,4.27
2022-08-01T21:04:33.545Z,3.10
2022-08-01T21:07:11.155Z,3.20
2022-08-01T21:09:43.771Z,2.73
2022-08-01T21:12:21.421Z,3.60
2022-08-01T21:14:54.357Z,3.37
2022-08-01T21:17:38.787Z,3.60
2022-08-01T21:20:08.677Z,4.03
2022-08-01T21:22:39.714Z,3.77
2022-08-01T21:25:14.357Z,4.00
2022-08-01T21:27:47.129Z,3.53
2022-08-01T21:30:15.484Z,3.40
2022-08-01T21:32:44.380Z,3.70
2022-08-01T21:35:15.868Z,2.93
2022-08-01T21:37:52.094Z,3.33
2022-08-01T21:40:24.115Z,3.17
2022-08-01T21:42:54.130Z,3.47
2022-08-01T21:45:24.729Z,2.93
2022-08-01T21:47:53.498Z,2.70
2022-08-01T21:50:22.298Z,2.90
2022-08-01T21:52:59.271Z,2.83
2022-08-01T21:55:35.551Z,3.20
2022-08-01T21:58:19.268Z,2.70
2022-08-01T22:00:53.425Z,2.50
2022-08-01T22:03:26.181Z,2.60
2022-08-01T22:05:55.987Z,2.90
2022-08-01T22:08:30.972Z,2.60
2022-08-01T22:11:01.878Z,2.40
2022-08-01T22:13:30.190Z,2.07
2022-08-01T22:15:59.890Z,2.67
2022-08-01T22:18:29.053Z,2.30
2022-08-01T22:20:59.991Z,2.30
2022-08-01T22:23:29.294Z,2.60
2022-08-01T22:25:57.450Z,2.30
2022-08-01T22:28:27.318Z,2.23
2022-08-01T22:30:56.255Z,2.30
2022-08-01T22:33:25.101Z,2.43
2022-08-01T22:35:53.739Z,2.13
2022-08-01T22:38:23.732Z,2.70
2022-08-01T22:40:54.739Z,2.57
2022-08-01T22:43:31.240Z,2.10
2022-08-01T22:46:15.836Z,2.33
2022-08-01T22:48:47.352Z,2.30
2022-08-01T22:51:55.254Z,2.47
2022-08-01T22:54:29.257Z,2.80
2022-08-01T22:56:58.252Z,2.60
2022-08-01T22:59:42.790Z,2.73
2022-08-01T23:02:16.122Z,2.33
2022-08-01T23:04:46.953Z,2.50
2022-08-01T23:07:20.442Z,2.57
2022-08-01T23:09:54.685Z,2.67
2022-08-01T23:12:27.233Z,2.47
2022-08-01T23:15:00.156Z,2.60
2022-08-01T23:17:31.729Z,2.57
2022-08-01T23:20:01.596Z,2.50
2022-08-01T23:22:32.305Z,2.63
2022-08-01T23:25:04.703Z,2.27
2022-08-01T23:28:03.747Z,2.40
2022-08-01T23:30:27.038Z,2.60
2022-08-01T23:32:55.537Z,2.50
2022-08-01T23:35:24.457Z,2.50
2022-08-01T23:37:52.847Z,2.87
2022-08-01T23:40:24.848Z,2.57
2022-08-01T23:42:54.720Z,2.63
2022-08-01T23:45:23.356Z,2.70
2022-08-01T23:47:53.376Z,2.70
2022-08-01T23:50:22.497Z,2.60
2022-08-01T23:52:51.449Z,2.70
2022-08-01T23:55:25.094Z,3.50
2022-08-01T23:58:06.969Z,2.77
